Time;durP1;ratioP1;P1;durP2;ratioP2;P2;SDS_P1;SDS_P2;PMS_P1;PMS_P2;Temp;Humidity;BMP_temperature;BMP_pressure;BME280_temperature;BME280_humidity;BME280_pressure;Samples;Min_cycle;Max_cycle;Signal;HPM_P1;HPM_P2
2022/03/31 00:01:43;;;;;;;7.37;5.03;;;2.70;97.20;;;;;;5178928;28;20481;-48
2022/03/31 00:04:13;;;;;;;9.23;4.00;;;2.70;97.10;;;;;;5284031;28;20756;-47
2022/03/31 00:06:44;;;;;;;4.90;4.13;;;2.70;97.30;;;;;;5189056;28;20497;-49
2022/03/31 00:09:14;;;;;;;5.90;3.90;;;2.60;97.20;;;;;;5280839;28;20267;-49
2022/03/31 00:11:45;;;;;;;12.53;4.20;;;2.60;96.90;;;;;;5194943;28;20183;-49
2022/03/31 00:14:15;;;;;;;8.77;4.90;;;2.60;96.90;;;;;;5298638;27;20333;-49
2022/03/31 00:16:47;;;;;;;4.77;4.37;;;2.60;96.80;;;;;;5192751;28;20190;-50
2022/03/31 00:19:17;;;;;;;4.43;4.03;;;2.60;96.70;;;;;;5254723;28;20215;-48
2022/03/31 00:21:48;;;;;;;9.80;4.47;;;2.50;96.80;;;;;;5202307;28;20428;-49
2022/03/31 00:24:19;;;;;;;6.97;4.37;;;2.50;96.90;;;;;;5245080;28;20209;-49
2022/03/31 00:26:49;;;;;;;3.97;3.60;;;2.50;97.00;;;;;;5195304;28;20463;-50
2022/03/31 00:29:20;;;;;;;5.03;4.43;;;2.50;96.70;;;;;;5189624;28;20570;-50
2022/03/31 00:31:50;;;;;;;12.20;3.97;;;2.50;96.70;;;;;;5203347;28;20219;-49
2022/03/31 00:34:21;;;;;;;8.47;3.50;;;2.40;96.50;;;;;;5221605;28;20220;-51
2022/03/31 00:36:51;;;;;;;4.07;3.67;;;2.40;96.50;;;;;;5172932;28;20187;-48
2022/03/31 00:39:34;;;;;;;4.30;3.90;;;2.30;96.60;;;;;;5178243;28;21055;-50
2022/03/31 00:42:06;;;;;;;5.03;4.60;;;2.30;96.50;;;;;;5274908;27;20182;-49
2022/03/31 00:44:37;;;;;;;5.63;3.53;;;2.30;96.10;;;;;;5278920;27;20465;-51
2022/03/31 00:47:08;;;;;;;4.77;4.10;;;2.30;95.90;;;;;;5215170;28;20444;-51
2022/03/31 00:49:39;;;;;;;5.77;3.60;;;2.20;95.80;;;;;;5217821;28;20193;-49
2022/03/31 00:52:09;;;;;;;4.13;3.73;;;2.10;96.10;;;;;;5191033;28;20431;-49
2022/03/31 00:54:41;;;;;;;3.77;3.40;;;2.10;96.10;;;;;;5193606;28;20208;-50
2022/03/31 00:57:13;;;;;;;6.07;3.90;;;2.10;96.10;;;;;;5201285;28;20202;-49
2022/03/31 00:59:43;;;;;;;4.23;3.77;;;2.00;96.30;;;;;;5177733;28;20967;-51
2022/03/31 01:02:14;;;;;;;5.60;4.07;;;2.00;96.20;;;;;;5177788;28;20450;-49
2022/03/31 01:04:46;;;;;;;4.67;4.27;;;1.90;96.30;;;;;;5217834;28;20225;-48
2022/03/31 01:07:17;;;;;;;6.20;4.33;;;1.90;96.40;;;;;;5185163;28;20268;-49
2022/03/31 01:09:47;;;;;;;4.17;3.70;;;1.90;96.70;;;;;;5229009;28;21033;-50
2022/03/31 01:12:18;;;;;;;4.07;3.67;;;1.80;96.60;;;;;;5205520;28;20193;-49
2022/03/31 01:15:23;;;;;;;8.00;4.13;;;1.80;96.60;;;;;;5207419;28;20345;-49
2022/03/31 01:17:53;;;;;;;10.97;4.60;;;1.80;96.70;;;;;;5188138;28;20241;-49
2022/03/31 01:20:24;;;;;;;6.60;4.20;;;1.80;97.00;;;;;;5190459;28;20451;-49
2022/03/31 01:22:56;;;;;;;4.63;3.60;;;1.70;97.10;;;;;;5194109;28;20267;-49
2022/03/31 01:25:28;;;;;;;5.70;3.37;;;1.70;97.30;;;;;;5190076;28;20212;-48
2022/03/31 01:27:58;;;;;;;5.23;3.73;;;1.70;97.40;;;;;;5266059;28;20562;-48
2022/03/31 01:30:29;;;;;;;10.10;4.43;;;1.60;97.40;;;;;;5163226;28;21359;-50
2022/03/31 01:33:00;;;;;;;3.53;3.33;;;1.60;97.40;;;;;;5186078;28;20642;-49
2022/03/31 01:35:30;;;;;;;7.23;3.57;;;1.60;97.80;;;;;;5237112;28;20184;-50
2022/03/31 01:38:01;;;;;;;3.63;3.33;;;1.50;98.10;;;;;;5179049;28;20219;-49
2022/03/31 01:40:31;;;;;;;5.50;3.43;;;1.50;98.20;;;;;;5180010;28;20192;-49
2022/03/31 01:43:02;;;;;;;7.50;3.50;;;1.50;98.60;;;;;;5181759;28;20190;-50
2022/03/31 01:45:33;;;;;;;4.83;3.37;;;1.50;98.60;;;;;;5280515;27;20321;-51
2022/03/31 01:48:04;;;;;;;9.00;3.93;;;1.40;98.60;;;;;;5177717;28;20207;-50
2022/03/31 01:50:35;;;;;;;3.83;3.43;;;1.40;98.30;;;;;;5208690;28;20438;-51
2022/03/31 01:53:06;;;;;;;7.80;4.00;;;1.40;98.50;;;;;;5287151;27;20854;-49
2022/03/31 01:55:38;;;;;;;3.70;3.37;;;1.40;98.50;;;;;;5192879;28;20431;-48
2022/03/31 01:58:09;;;;;;;3.77;3.40;;;1.30;98.90;;;;;;5185739;28;20197;-48
2022/03/31 02:00:40;;;;;;;12.33;3.37;;;1.30;99.10;;;;;;5187883;28;20479;-50
2022/03/31 02:03:10;;;;;;;5.17;3.53;;;1.30;99.00;;;;;;5230735;28;20184;-48
2022/03/31 02:05:41;;;;;;;4.77;3.40;;;1.20;99.30;;;;;;5180817;28;20203;-50
2022/03/31 02:08:12;;;;;;;5.40;3.20;;;1.20;99.40;;;;;;5180925;28;20210;-50
2022/03/31 02:10:42;;;;;;;4.53;2.83;;;1.20;99.40;;;;;;5187023;28;20174;-49
2022/03/31 02:13:13;;;;;;;6.37;3.40;;;1.20;99.50;;;;;;5173169;28;20181;-49
2022/03/31 02:15:44;;;;;;;4.00;2.83;;;1.20;99.70;;;;;;5281320;27;20468;-49
2022/03/31 02:18:14;;;;;;;4.27;3.50;;;1.10;99.90;;;;;;5292698;27;20288;-49
2022/03/31 02:20:45;;;;;;;3.90;3.37;;;1.10;99.60;;;;;;5211181;28;20239;-49
2022/03/31 02:23:15;;;;;;;8.90;3.67;;;1.00;99.90;;;;;;5180585;28;20230;-50
2022/03/31 02:25:46;;;;;;;3.37;3.10;;;1.00;99.90;;;;;;5185326;28;20212;-49
2022/03/31 02:28:17;;;;;;;5.90;2.93;;;1.00;99.90;;;;;;5219450;28;20543;-49
2022/03/31 02:30:48;;;;;;;6.47;4.07;;;0.90;99.90;;;;;;5179639;28;20449;-49
2022/03/31 02:33:18;;;;;;;6.60;3.40;;;0.90;99.90;;;;;;5282428;27;20192;-48
2022/03/31 02:35:49;;;;;;;8.97;3.70;;;0.90;99.90;;;;;;5178134;28;20578;-48
2022/03/31 02:38:19;;;;;;;3.33;3.13;;;0.80;99.90;;;;;;5187321;28;20235;-48
2022/03/31 02:40:50;;;;;;;2.93;2.57;;;0.80;99.90;;;;;;5180941;28;20208;-49
2022/03/31 02:43:20;;;;;;;3.70;3.20;;;0.80;99.90;;;;;;5196835;28;20178;-49
2022/03/31 02:45:51;;;;;;;6.27;3.83;;;0.80;99.90;;;;;;5178533;28;20218;-49
2022/03/31 02:48:21;;;;;;;10.23;3.80;;;0.80;99.90;;;;;;5174858;28;20215;-49
2022/03/31 02:50:52;;;;;;;8.87;3.93;;;0.70;99.90;;;;;;5218991;28;20181;-49
2022/03/31 02:56:12;;;;;;;5.27;3.50;;;0.70;99.90;;;;;;5179039;28;20191;-50
2022/03/31 02:58:43;;;;;;;5.50;3.60;;;0.60;99.90;;;;;;5230971;28;20803;-49
2022/03/31 03:01:14;;;;;;;5.87;3.27;;;0.70;99.90;;;;;;5292342;27;20196;-50
2022/03/31 03:03:45;;;;;;;13.80;3.33;;;0.60;99.90;;;;;;5213644;28;20249;-48
2022/03/31 03:06:16;;;;;;;4.80;3.10;;;0.60;99.90;;;;;;5180526;28;20423;-48
2022/03/31 03:08:46;;;;;;;4.30;3.10;;;0.60;99.90;;;;;;5185685;28;20191;-50
2022/03/31 03:11:17;;;;;;;4.33;3.80;;;0.50;99.90;;;;;;5177774;28;20431;-50
2022/03/31 03:13:48;;;;;;;5.30;4.10;;;0.50;99.90;;;;;;5179330;28;20233;-49
2022/03/31 03:16:18;;;;;;;5.50;3.20;;;0.50;99.90;;;;;;5175051;28;20432;-48
2022/03/31 03:18:49;;;;;;;4.10;3.30;;;0.40;99.90;;;;;;5275922;27;20245;-49
2022/03/31 03:21:20;;;;;;;4.43;3.10;;;0.40;99.90;;;;;;5181809;28;20180;-49
2022/03/31 03:23:51;;;;;;;7.57;4.00;;;0.30;99.90;;;;;;5181343;28;20258;-48
2022/03/31 03:26:22;;;;;;;8.57;3.17;;;0.30;99.90;;;;;;5173858;28;20501;-50
2022/03/31 03:28:53;;;;;;;8.53;2.63;;;0.30;99.90;;;;;;5284028;27;21187;-48
2022/03/31 03:31:24;;;;;;;4.87;2.87;;;0.30;99.90;;;;;;5273333;27;20184;-48
2022/03/31 03:33:54;;;;;;;3.40;3.10;;;0.20;99.90;;;;;;5203228;28;20216;-48
2022/03/31 03:36:26;;;;;;;7.23;3.53;;;0.20;99.90;;;;;;5214291;28;20172;-47
2022/03/31 03:38:57;;;;;;;3.90;3.30;;;0.20;99.90;;;;;;5211935;28;20208;-49
2022/03/31 03:41:28;;;;;;;5.30;3.33;;;0.20;99.90;;;;;;5203230;28;20842;-47
2022/03/31 03:43:58;;;;;;;3.37;3.07;;;0.20;99.90;;;;;;5273071;28;20440;-48
2022/03/31 03:46:29;;;;;;;6.40;3.40;;;0.20;99.90;;;;;;5171024;28;20179;-50
2022/03/31 03:49:00;;;;;;;6.07;3.00;;;0.10;99.90;;;;;;5193395;28;20212;-48
2022/03/31 03:51:30;;;;;;;4.50;2.80;;;0.10;99.90;;;;;;5175540;28;20204;-51
2022/03/31 03:54:03;;;;;;;7.30;3.47;;;0.10;99.90;;;;;;5179544;28;20757;-48
2022/03/31 03:56:33;;;;;;;7.13;3.63;;;0.00;99.90;;;;;;5178349;28;20644;-49
2022/03/31 03:59:04;;;;;;;4.67;3.03;;;0.10;99.90;;;;;;5197305;28;20460;-48
2022/03/31 04:01:35;;;;;;;5.33;3.00;;;0.10;99.90;;;;;;5271752;28;20180;-50
2022/03/31 04:04:05;;;;;;;3.90;2.83;;;0.00;99.90;;;;;;5177331;28;20466;-48
2022/03/31 04:06:37;;;;;;;4.47;2.77;;;0.00;99.90;;;;;;5175139;28;20264;-51
2022/03/31 04:09:07;;;;;;;2.57;2.37;;;-0.10;99.90;;;;;;5190869;28;20286;-49
2022/03/31 04:11:38;;;;;;;6.70;2.50;;;-0.10;99.90;;;;;;5262677;28;20531;-50
2022/03/31 04:14:09;;;;;;;4.83;3.07;;;-0.10;99.90;;;;;;5196384;28;20176;-48
2022/03/31 04:16:39;;;;;;;4.37;2.70;;;-0.20;99.90;;;;;;5189189;28;20206;-49
2022/03/31 04:19:10;;;;;;;13.67;2.97;;;-0.20;99.90;;;;;;5227351;28;20217;-49
2022/03/31 04:21:40;;;;;;;6.77;2.87;;;-0.10;99.90;;;;;;5182676;28;20241;-50
2022/03/31 04:24:11;;;;;;;3.27;2.97;;;-0.20;99.90;;;;;;5193380;28;20223;-50
2022/03/31 04:26:41;;;;;;;3.30;2.87;;;-0.20;99.90;;;;;;5186915;28;20701;-48
2022/03/31 04:29:12;;;;;;;3.20;2.63;;;-0.20;99.90;;;;;;5208016;28;20253;-48
2022/03/31 04:31:43;;;;;;;6.83;3.00;;;-0.30;99.90;;;;;;5183217;28;20208;-51
2022/03/31 04:34:15;;;;;;;4.77;2.60;;;-0.30;99.90;;;;;;5238806;28;20191;-50
2022/03/31 04:36:46;;;;;;;6.00;2.17;;;-0.30;99.90;;;;;;5196085;28;20448;-49
2022/03/31 04:39:17;;;;;;;2.50;2.40;;;-0.30;99.90;;;;;;5273039;27;20821;-50
2022/03/31 04:41:48;;;;;;;2.57;2.37;;;-0.30;99.90;;;;;;5232042;28;20441;-48
2022/03/31 04:44:19;;;;;;;5.10;2.93;;;-0.40;99.90;;;;;;5190186;28;20196;-48
2022/03/31 04:46:50;;;;;;;5.70;2.63;;;-0.40;99.90;;;;;;5211020;28;20431;-51
2022/03/31 04:49:20;;;;;;;3.93;3.00;;;-0.40;99.90;;;;;;5232093;28;20457;-48
2022/03/31 04:51:51;;;;;;;2.83;2.63;;;-0.40;99.90;;;;;;5181359;28;20461;-49
2022/03/31 04:54:22;;;;;;;3.30;3.00;;;-0.40;99.90;;;;;;5183703;28;20221;-49
2022/03/31 04:56:52;;;;;;;5.40;2.47;;;-0.30;99.90;;;;;;5183647;28;20187;-48
2022/03/31 04:59:23;;;;;;;2.40;2.27;;;-0.30;99.90;;;;;;5185363;28;20690;-49
2022/03/31 05:01:53;;;;;;;4.03;2.17;;;-0.40;99.90;;;;;;5271526;27;20191;-49
2022/03/31 05:04:24;;;;;;;5.07;2.10;;;-0.30;99.90;;;;;;5188014;28;20594;-50
2022/03/31 05:06:55;;;;;;;3.23;2.70;;;-0.40;99.90;;;;;;5276133;27;20506;-48
2022/03/31 05:09:25;;;;;;;2.90;2.70;;;-0.30;99.90;;;;;;5204512;28;20777;-49
2022/03/31 05:11:56;;;;;;;4.30;2.70;;;-0.40;99.90;;;;;;5203530;28;20184;-50
2022/03/31 05:14:26;;;;;;;6.33;2.67;;;-0.30;99.90;;;;;;5186663;28;20191;-51
2022/03/31 05:16:58;;;;;;;7.60;2.37;;;-0.20;99.90;;;;;;5178146;28;20345;-49
2022/03/31 05:19:28;;;;;;;3.90;2.57;;;-0.30;99.90;;;;;;5176225;28;20380;-49
2022/03/31 05:21:59;;;;;;;6.87;3.10;;;-0.30;99.90;;;;;;5184295;28;20466;-48
2022/03/31 05:24:30;;;;;;;2.90;2.60;;;-0.20;99.90;;;;;;5278095;27;20231;-49
2022/03/31 05:27:00;;;;;;;2.57;2.33;;;-0.20;99.90;;;;;;5273247;27;20222;-48
2022/03/31 05:29:31;;;;;;;2.93;2.40;;;-0.10;99.90;;;;;;5282462;27;20223;-48
2022/03/31 05:32:02;;;;;;;2.30;2.10;;;0.00;99.90;;;;;;5181601;28;20233;-47
2022/03/31 05:34:35;;;;;;;2.87;2.67;;;0.00;99.90;;;;;;5189033;28;20448;-49
2022/03/31 05:37:05;;;;;;;5.10;2.40;;;-0.10;99.90;;;;;;5176382;28;20442;-49
2022/03/31 05:39:36;;;;;;;2.63;2.40;;;-0.10;99.90;;;;;;5184317;28;20809;-49
2022/03/31 05:42:07;;;;;;;7.30;2.80;;;0.00;99.90;;;;;;5193029;28;20199;-48
2022/03/31 05:44:37;;;;;;;2.50;2.30;;;0.00;99.90;;;;;;5277569;27;20588;-49
2022/03/31 05:47:08;;;;;;;7.33;2.73;;;0.20;99.90;;;;;;5178637;28;20437;-48
2022/03/31 05:49:38;;;;;;;3.70;2.60;;;0.20;99.50;;;;;;5193182;28;20221;-47
2022/03/31 05:52:09;;;;;;;2.97;2.70;;;0.30;99.40;;;;;;5275029;27;20180;-50
2022/03/31 05:54:39;;;;;;;4.57;2.20;;;0.30;99.20;;;;;;5178898;28;20200;-48
2022/03/31 05:57:10;;;;;;;3.00;2.30;;;0.30;99.90;;;;;;5176771;28;20542;-48
2022/03/31 05:59:41;;;;;;;7.47;2.77;;;0.50;99.90;;;;;;5177527;28;20686;-50
2022/03/31 06:02:12;;;;;;;3.30;2.40;;;0.70;99.00;;;;;;5179810;28;20662;-48
2022/03/31 06:04:43;;;;;;;2.67;2.40;;;0.70;97.70;;;;;;5186843;28;20711;-51
2022/03/31 06:07:13;;;;;;;4.27;2.83;;;0.90;95.90;;;;;;5180449;28;20440;-49
2022/03/31 06:09:44;;;;;;;5.40;2.50;;;1.10;95.00;;;;;;5183917;28;20224;-48
2022/03/31 06:12:14;;;;;;;6.00;3.00;;;1.20;94.00;;;;;;5178654;28;20230;-48
2022/03/31 06:14:45;;;;;;;6.20;3.13;;;1.20;92.50;;;;;;5179586;28;20201;-50
2022/03/31 06:17:16;;;;;;;4.47;2.73;;;1.30;91.80;;;;;;5179383;28;20189;-50
2022/03/31 06:19:46;;;;;;;2.90;1.90;;;1.40;91.10;;;;;;5173986;28;20752;-48
2022/03/31 06:22:17;;;;;;;5.13;2.27;;;1.30;90.80;;;;;;5173590;28;20200;-49
2022/03/31 06:24:48;;;;;;;4.17;2.00;;;1.20;91.20;;;;;;5184921;28;20287;-47
2022/03/31 06:27:18;;;;;;;4.07;2.53;;;1.40;90.80;;;;;;5280891;27;20186;-50
2022/03/31 06:29:49;;;;;;;3.17;2.50;;;1.50;88.90;;;;;;5268069;28;20214;-50
2022/03/31 06:32:20;;;;;;;4.33;2.70;;;1.70;87.40;;;;;;5182049;28;20184;-50
2022/03/31 06:34:50;;;;;;;2.50;2.40;;;1.90;83.20;;;;;;5195425;28;20991;-50
2022/03/31 06:37:21;;;;;;;18.53;3.30;;;2.10;79.40;;;;;;5177174;28;20193;-51
2022/03/31 06:39:51;;;;;;;6.77;2.60;;;2.40;77.20;;;;;;5188017;28;20228;-49
2022/03/31 06:42:22;;;;;;;2.77;2.57;;;3.00;71.90;;;;;;5199363;28;20312;-50
2022/03/31 06:44:53;;;;;;;9.47;3.00;;;3.80;65.40;;;;;;5181789;28;21606;-48
2022/03/31 06:47:24;;;;;;;5.20;2.30;;;4.10;59.50;;;;;;5275557;27;20440;-51
2022/03/31 06:49:54;;;;;;;6.87;3.43;;;4.00;57.20;;;;;;5186706;28;20599;-49
2022/03/31 06:52:25;;;;;;;3.53;2.60;;;4.10;56.40;;;;;;5187442;28;20433;-49
2022/03/31 06:54:55;;;;;;;4.93;2.70;;;4.30;55.00;;;;;;5197585;28;20189;-50
2022/03/31 06:57:26;;;;;;;5.13;2.97;;;3.80;55.50;;;;;;5183870;28;20559;-49
2022/03/31 06:59:57;;;;;;;3.40;3.10;;;3.80;55.80;;;;;;5178329;28;20216;-51
2022/03/31 07:02:28;;;;;;;2.90;2.60;;;3.90;55.80;;;;;;5283607;27;20430;-52
2022/03/31 07:04:59;;;;;;;4.10;2.90;;;4.30;54.30;;;;;;5282489;27;20200;-51
2022/03/31 07:07:29;;;;;;;3.00;2.70;;;4.30;53.80;;;;;;5180533;28;20184;-53
2022/03/31 07:10:02;;;;;;;13.53;2.90;;;4.30;53.90;;;;;;5163323;28;20254;-51
2022/03/31 07:12:35;;;;;;;4.37;3.20;;;4.40;53.10;;;;;;5281351;27;20194;-52
2022/03/31 07:15:07;;;;;;;5.40;2.67;;;4.50;53.10;;;;;;5178169;28;20435;-51
2022/03/31 07:17:38;;;;;;;4.30;3.43;;;4.70;52.20;;;;;;5175728;28;20452;-52
2022/03/31 07:20:09;;;;;;;2.70;2.50;;;4.60;52.40;;;;;;5182025;28;20446;-51
2022/03/31 07:22:48;;;;;;;3.73;2.93;;;4.40;51.80;;;;;;5176618;28;20190;-50
2022/03/31 07:25:19;;;;;;;5.20;3.23;;;4.60;51.80;;;;;;5177620;28;20482;-52
2022/03/31 07:27:50;;;;;;;4.40;3.43;;;4.10;52.10;;;;;;5184314;28;20427;-50
2022/03/31 07:30:22;;;;;;;3.30;3.00;;;4.20;52.40;;;;;;5180202;28;20650;-50
2022/03/31 07:32:58;;;;;;;6.73;3.50;;;4.20;52.50;;;;;;5180505;28;20891;-50
2022/03/31 07:35:31;;;;;;;4.83;3.50;;;4.40;52.70;;;;;;5178933;28;20980;-50
2022/03/31 07:38:03;;;;;;;7.53;2.60;;;4.60;51.70;;;;;;5177964;28;20963;-51
2022/03/31 07:40:36;;;;;;;13.43;3.00;;;4.80;50.80;;;;;;5179520;28;20447;-50
2022/03/31 07:43:07;;;;;;;10.33;3.07;;;4.90;50.20;;;;;;5217087;28;20439;-51
2022/03/31 07:45:39;;;;;;;14.63;3.27;;;4.30;51.20;;;;;;5231559;28;20477;-50
2022/03/31 07:48:13;;;;;;;10.20;2.60;;;4.40;51.50;;;;;;5195446;28;20820;-50
2022/03/31 07:50:45;;;;;;;3.70;3.20;;;4.10;51.90;;;;;;5183007;28;20530;-51
2022/03/31 07:53:17;;;;;;;5.03;4.00;;;4.30;51.70;;;;;;5178914;28;20431;-50
2022/03/31 07:55:47;;;;;;;8.63;2.80;;;4.20;52.10;;;;;;5197638;28;20440;-50
2022/03/31 07:58:19;;;;;;;11.37;3.00;;;4.40;51.80;;;;;;5199312;28;20535;-52
2022/03/31 08:00:50;;;;;;;6.93;3.10;;;4.70;50.80;;;;;;5207177;28;20894;-49
2022/03/31 08:03:26;;;;;;;7.00;4.20;;;5.00;50.00;;;;;;5284685;27;20439;-47
2022/03/31 08:05:56;;;;;;;5.63;3.43;;;5.20;49.20;;;;;;5195562;28;20467;-50
2022/03/31 08:08:28;;;;;;;4.00;3.20;;;5.50;48.90;;;;;;5188591;28;20454;-50
2022/03/31 08:10:59;;;;;;;4.20;2.77;;;5.70;47.90;;;;;;5190610;28;20176;-49
2022/03/31 08:13:30;;;;;;;4.57;3.27;;;5.60;47.50;;;;;;5202657;28;20442;-50
2022/03/31 08:16:00;;;;;;;4.90;3.37;;;5.30;48.10;;;;;;5288968;27;20189;-48
2022/03/31 08:18:34;;;;;;;3.13;2.80;;;5.10;48.70;;;;;;5191212;28;20470;-50
2022/03/31 08:21:05;;;;;;;13.50;3.17;;;4.80;49.20;;;;;;5283666;27;20190;-51
2022/03/31 08:23:36;;;;;;;4.63;2.77;;;4.30;50.10;;;;;;5201744;28;20529;-50
2022/03/31 08:26:06;;;;;;;2.80;2.60;;;4.20;51.80;;;;;;5207798;28;20454;-51
2022/03/31 08:28:37;;;;;;;5.37;2.77;;;4.40;51.30;;;;;;5194761;28;20213;-47
2022/03/31 08:31:07;;;;;;;7.37;2.97;;;4.30;51.40;;;;;;5194242;28;20192;-52
2022/03/31 08:33:38;;;;;;;6.07;2.90;;;4.20;51.60;;;;;;5288040;27;20275;-49
2022/03/31 08:36:08;;;;;;;9.50;3.10;;;4.30;51.70;;;;;;5195213;28;20259;-53
2022/03/31 08:38:39;;;;;;;7.03;3.00;;;4.50;51.30;;;;;;5276508;27;20223;-47
2022/03/31 08:41:12;;;;;;;6.70;3.40;;;4.60;50.80;;;;;;5186949;28;20234;-53
2022/03/31 08:43:43;;;;;;;5.77;3.53;;;4.60;50.60;;;;;;5183176;28;20590;-52
2022/03/31 08:46:15;;;;;;;2.73;2.57;;;4.40;50.80;;;;;;5284077;27;20463;-50
2022/03/31 08:48:46;;;;;;;3.47;3.17;;;4.30;51.60;;;;;;5192344;28;20237;-52
2022/03/31 08:51:16;;;;;;;3.70;3.23;;;4.30;51.60;;;;;;5207384;28;20431;-52
2022/03/31 08:53:49;;;;;;;6.67;3.73;;;4.40;51.10;;;;;;5184584;28;20184;-51
2022/03/31 08:56:19;;;;;;;5.53;3.60;;;4.60;50.70;;;;;;5178100;28;20275;-51
2022/03/31 08:58:50;;;;;;;5.83;3.30;;;4.70;50.60;;;;;;5191801;28;20560;-49
2022/03/31 09:01:20;;;;;;;7.13;3.13;;;4.60;50.60;;;;;;5221293;28;20216;-51
2022/03/31 09:03:53;;;;;;;9.70;2.90;;;4.70;50.10;;;;;;5269990;22;20230;-51
2022/03/31 09:09:03;;;;;;;9.43;3.50;;;4.80;49.80;;;;;;5242361;28;20788;-51
2022/03/31 09:11:41;;;;;;;4.20;2.77;;;4.70;50.00;;;;;;5247322;28;20448;-48
2022/03/31 09:14:13;;;;;;;4.30;3.70;;;4.90;49.90;;;;;;5250181;28;20501;-52
2022/03/31 09:16:45;;;;;;;3.40;3.10;;;4.90;49.80;;;;;;5249001;28;20424;-48
2022/03/31 09:19:17;;;;;;;15.03;2.83;;;5.00;49.80;;;;;;5251606;28;20452;-49
2022/03/31 09:21:58;;;;;;;5.60;3.30;;;5.00;49.40;;;;;;5234189;28;20483;-50
2022/03/31 09:24:31;;;;;;;3.20;2.90;;;5.00;49.60;;;;;;5251684;28;20486;-48
2022/03/31 09:27:04;;;;;;;25.53;3.70;;;5.10;49.70;;;;;;5230376;28;20519;-48
2022/03/31 09:29:35;;;;;;;4.50;2.53;;;5.00;49.50;;;;;;5243070;28;20452;-48
2022/03/31 09:32:11;;;;;;;8.97;3.30;;;4.90;50.10;;;;;;5248081;28;20429;-49
2022/03/31 09:34:42;;;;;;;6.60;3.60;;;5.00;50.50;;;;;;5249867;28;20170;-51
2022/03/31 09:37:13;;;;;;;4.50;3.60;;;4.90;50.70;;;;;;5251719;28;20423;-50
2022/03/31 09:39:54;;;;;;;12.00;3.50;;;5.00;50.90;;;;;;5237591;28;20547;-48
2022/03/31 09:42:24;;;;;;;6.10;3.70;;;5.20;50.90;;;;;;5240265;28;20956;-49
2022/03/31 09:44:57;;;;;;;20.97;3.53;;;5.50;49.70;;;;;;5248824;28;20483;-48
2022/03/31 09:47:28;;;;;;;3.40;3.10;;;5.40;49.70;;;;;;5255138;28;20187;-49
2022/03/31 09:49:58;;;;;;;5.03;4.00;;;5.60;49.80;;;;;;5247816;28;20452;-50
2022/03/31 09:52:29;;;;;;;6.63;4.50;;;5.60;49.90;;;;;;5245037;28;20436;-53
2022/03/31 09:55:01;;;;;;;4.50;4.10;;;5.50;49.90;;;;;;5242622;28;20186;-49
2022/03/31 09:57:34;;;;;;;6.67;4.30;;;5.50;50.40;;;;;;5229648;28;20197;-49
2022/03/31 10:00:06;;;;;;;7.07;3.83;;;5.50;50.50;;;;;;5242195;28;20792;-52
2022/03/31 10:02:38;;;;;;;6.57;4.10;;;5.40;50.50;;;;;;5248921;28;20419;-49
2022/03/31 10:05:09;;;;;;;5.63;3.27;;;5.50;50.30;;;;;;5245787;28;20457;-48
2022/03/31 10:07:39;;;;;;;4.63;4.33;;;5.30;50.50;;;;;;5242770;28;20448;-50
2022/03/31 10:10:10;;;;;;;4.97;3.53;;;5.20;50.90;;;;;;5244770;28;20950;-50
2022/03/31 10:13:07;;;;;;;6.27;3.80;;;5.40;50.80;;;;;;5238499;28;20194;-48
2022/03/31 10:15:40;;;;;;;4.87;4.20;;;5.60;50.90;;;;;;5242256;28;20186;-58
2022/03/31 10:18:15;;;;;;;7.53;4.10;;;5.80;49.80;;;;;;5245813;28;20464;-49
2022/03/31 10:20:54;;;;;;;6.90;3.50;;;5.60;50.00;;;;;;5241312;28;20505;-49
2022/03/31 10:26:26;;;;;;;4.33;4.00;;;5.80;50.30;;;;;;5245924;28;20505;-49
2022/03/31 10:29:02;;;;;;;14.20;4.37;;;5.90;49.80;;;;;;5241037;28;20441;-51
2022/03/31 10:31:38;;;;;;;4.90;3.73;;;5.90;49.50;;;;;;5245702;28;21030;-51
2022/03/31 10:34:11;;;;;;;11.57;4.00;;;5.90;49.90;;;;;;5257703;28;20424;-46
2022/03/31 10:36:50;;;;;;;6.40;4.50;;;6.10;49.70;;;;;;5225894;28;20429;-49
2022/03/31 10:39:23;;;;;;;10.17;4.60;;;6.30;49.30;;;;;;5237607;28;20451;-48
2022/03/31 10:42:03;;;;;;;5.53;4.00;;;6.30;49.10;;;;;;5239789;28;20425;-49
2022/03/31 10:44:34;;;;;;;6.47;4.03;;;6.30;48.80;;;;;;5242593;28;20483;-50
2022/03/31 10:47:09;;;;;;;5.77;3.63;;;6.30;48.60;;;;;;5240943;28;20440;-50
2022/03/31 10:49:53;;;;;;;3.43;3.00;;;6.30;48.70;;;;;;5244557;28;20457;-51
2022/03/31 10:52:24;;;;;;;3.37;3.17;;;6.50;48.30;;;;;;5250678;28;20473;-48
2022/03/31 10:55:05;;;;;;;5.97;4.10;;;6.50;47.60;;;;;;5239125;28;20462;-51
2022/03/31 10:57:44;;;;;;;9.77;4.00;;;6.40;47.80;;;;;;5246550;28;20205;-49
2022/03/31 11:00:15;;;;;;;6.40;4.10;;;6.60;47.80;;;;;;5244426;28;20525;-50
2022/03/31 11:02:46;;;;;;;7.87;3.97;;;6.70;47.50;;;;;;5246449;28;20965;-50
2022/03/31 11:05:17;;;;;;;8.50;4.00;;;6.60;47.10;;;;;;5240348;28;20348;-51
2022/03/31 11:07:48;;;;;;;3.73;3.43;;;6.50;47.40;;;;;;5241127;28;20532;-56
2022/03/31 11:10:19;;;;;;;7.50;3.90;;;6.50;47.10;;;;;;5246126;28;20263;-51
2022/03/31 11:12:50;;;;;;;5.50;4.20;;;6.70;47.20;;;;;;5242778;28;20617;-48
2022/03/31 11:15:24;;;;;;;6.90;4.10;;;6.80;47.00;;;;;;5246009;28;20614;-49
2022/03/31 11:18:00;;;;;;;8.03;3.60;;;7.00;47.00;;;;;;5245151;28;20516;-52
2022/03/31 11:20:31;;;;;;;4.57;3.27;;;7.00;46.50;;;;;;5242539;28;20436;-50
2022/03/31 11:23:03;;;;;;;7.23;4.60;;;7.00;46.40;;;;;;5243059;28;20461;-50
2022/03/31 11:25:35;;;;;;;9.73;3.90;;;6.80;46.50;;;;;;5249850;28;20469;-50
2022/03/31 11:28:11;;;;;;;5.93;3.97;;;6.70;46.50;;;;;;5243624;28;20539;-49
2022/03/31 11:30:46;;;;;;;5.60;3.77;;;6.60;46.40;;;;;;5244156;28;20444;-54
2022/03/31 11:33:16;;;;;;;7.40;3.83;;;6.70;46.40;;;;;;5240784;28;20429;-47
2022/03/31 11:35:52;;;;;;;4.33;3.40;;;6.80;46.00;;;;;;5243484;28;20495;-53
2022/03/31 11:38:23;;;;;;;5.40;4.73;;;6.80;46.00;;;;;;5244403;28;20223;-50
2022/03/31 11:40:55;;;;;;;6.30;4.00;;;7.00;45.30;;;;;;5248662;28;20468;-54
2022/03/31 11:43:26;;;;;;;4.60;4.17;;;6.80;45.10;;;;;;5245770;28;20570;-51
2022/03/31 11:45:57;;;;;;;3.70;3.40;;;6.80;45.40;;;;;;5241438;28;20473;-51
2022/03/31 11:48:35;;;;;;;5.13;4.00;;;6.90;45.40;;;;;;5252432;28;20455;-51
2022/03/31 11:51:07;;;;;;;4.57;4.20;;;6.80;45.60;;;;;;5241596;28;20623;-52
2022/03/31 11:53:43;;;;;;;6.50;4.23;;;6.80;46.00;;;;;;5241395;28;20452;-50
2022/03/31 11:56:18;;;;;;;6.53;4.10;;;6.70;46.40;;;;;;5226859;28;20875;-49
2022/03/31 11:58:52;;;;;;;12.17;4.83;;;6.80;46.40;;;;;;5242655;28;20535;-51
2022/03/31 12:01:37;;;;;;;4.10;3.70;;;7.00;46.10;;;;;;5243082;28;20436;-49
2022/03/31 12:04:17;;;;;;;5.70;3.80;;;7.30;45.80;;;;;;5243376;28;20924;-52
2022/03/31 12:06:49;;;;;;;4.27;3.87;;;7.60;45.10;;;;;;5246828;28;20801;-50
2022/03/31 12:09:23;;;;;;;4.87;3.33;;;7.70;44.50;;;;;;5236375;28;20478;-47
2022/03/31 12:11:55;;;;;;;5.83;3.40;;;7.60;44.40;;;;;;5247735;28;20434;-50
2022/03/31 12:14:26;;;;;;;6.27;3.93;;;7.50;44.70;;;;;;5248946;28;20552;-49
2022/03/31 12:16:59;;;;;;;4.90;3.87;;;7.50;44.60;;;;;;5242308;28;20439;-49
2022/03/31 12:19:42;;;;;;;11.27;5.57;;;7.50;44.90;;;;;;5239226;28;20865;-47
2022/03/31 12:22:14;;;;;;;8.67;4.70;;;7.70;44.90;;;;;;5235936;28;20481;-48
2022/03/31 12:24:51;;;;;;;4.73;2.93;;;7.90;43.70;;;;;;5242414;28;20464;-51
2022/03/31 12:27:24;;;;;;;5.67;3.80;;;7.80;43.60;;;;;;5234690;28;20438;-50
2022/03/31 12:30:00;;;;;;;4.60;4.20;;;7.70;44.10;;;;;;5240717;28;20482;-50
2022/03/31 12:32:30;;;;;;;3.30;3.20;;;7.60;44.00;;;;;;5239217;28;20443;-49
2022/03/31 12:35:02;;;;;;;4.40;4.00;;;7.60;44.10;;;;;;5246369;28;20431;-47
2022/03/31 12:37:37;;;;;;;7.50;4.00;;;7.60;43.90;;;;;;5249823;28;20461;-47
2022/03/31 12:40:16;;;;;;;4.10;3.77;;;7.70;44.10;;;;;;5245936;28;20438;-50
2022/03/31 12:42:58;;;;;;;6.47;3.47;;;7.50;43.70;;;;;;5245992;28;20442;-50
2022/03/31 12:45:29;;;;;;;8.20;4.70;;;7.50;43.80;;;;;;5247391;28;20466;-48
2022/03/31 12:48:07;;;;;;;7.50;3.67;;;7.40;43.60;;;;;;5241669;28;20462;-50
2022/03/31 12:50:39;;;;;;;8.07;4.10;;;7.30;43.60;;;;;;5240398;28;20221;-49
2022/03/31 12:53:09;;;;;;;3.73;3.43;;;7.50;43.60;;;;;;5246041;28;20436;-51
2022/03/31 12:55:43;;;;;;;4.70;3.63;;;7.50;43.30;;;;;;5246184;28;20493;-50
2022/03/31 12:58:13;;;;;;;3.70;3.47;;;7.60;43.20;;;;;;5244835;28;20211;-49
2022/03/31 13:00:52;;;;;;;3.20;2.87;;;7.70;42.20;;;;;;5243708;28;20439;-50
2022/03/31 13:03:23;;;;;;;4.40;3.00;;;7.90;41.00;;;;;;5239858;28;20208;-48
2022/03/31 13:05:53;;;;;;;5.70;3.10;;;7.90;39.70;;;;;;5247199;28;20502;-48
2022/03/31 13:08:24;;;;;;;3.40;2.93;;;7.80;39.60;;;;;;5256472;28;20688;-48
2022/03/31 13:10:54;;;;;;;7.83;2.70;;;7.80;39.10;;;;;;5245316;28;20181;-50
2022/03/31 13:13:25;;;;;;;6.73;3.10;;;7.90;38.90;;;;;;5238451;28;20223;-50
2022/03/31 13:15:56;;;;;;;2.40;2.30;;;7.70;38.30;;;;;;5240179;28;20400;-49
2022/03/31 13:18:26;;;;;;;8.17;3.00;;;7.60;38.50;;;;;;5232145;28;20325;-48
2022/03/31 13:20:57;;;;;;;3.57;2.70;;;7.50;38.90;;;;;;5238911;28;20199;-51
2022/03/31 13:23:27;;;;;;;3.03;2.33;;;7.50;37.70;;;;;;5240329;28;20581;-49
2022/03/31 13:25:58;;;;;;;5.60;3.03;;;7.60;37.00;;;;;;5248507;28;20262;-49
2022/03/31 13:28:28;;;;;;;6.10;1.90;;;7.70;35.60;;;;;;5246670;28;21338;-50